x

Yucatan Basin - 120 Nm Ese Of Cozumel, Mx (42056) Wave Buoy

12:50 - Fri 27th Mar 2015 All times are CST. -6 hours from GMT.

  • Sig Wave height 3.6ft
  • Swell Direction
  • Peak Period 5s
  • Average Period 4s
  • Wind
    16mph, 18mph gusts
  • Sea Temp 81°f
  • Aire Temp 81°f
  • Sea Pressure 1012.5mb
  •  Yucatan Basin - 120 Nm Ese Of Cozumel, Mx
  •  Yucatan Basin - 120 Nm Ese Of Cozumel, Mx

More Historic Weather Station data

Upgrade to MSW Pro to gain access to the past 30 days of data for over 8000 Wavebouys and Weather Stations around the globe.

Join Pro

Comparision Forecast

View Surf forecast
   
vie 03/27 12:50 3.5ft 5s 4s 16 18 mph 1012.5mb 81f 81f
jue 03/26 11:50 3ft 6s 4s 13 16 mph 1013.5mb 81f 81f
10:50 3.5ft 5s 4s 16 18 mph 1013.7mb 81f 81f
9:50 3.5ft 5s 4s 16 18 mph 1013.9mb 81f 81f
8:50 3.5ft 5s 4s 13 16 mph 1013.7mb 81f 81f
7:50 3ft 5s 4s 16 20 mph 1012.9mb 81f 81f
6:50 3ft 5s 4s 18 20 mph 1012.6mb 81f 81f
5:50 3.5ft 5s 4s 16 18 mph 1012.6mb 81f 81f
4:50 3ft 5s 4s 16 18 mph 1012.3mb 81f 81f
3:50 2.5ft 4s 4s 13 16 mph 1012.4mb 81f 81f
2:50 2.5ft 4s 4s 13 16 mph 1012.5mb 81f 81f
1:50 2.5ft 4s 4s 16 20 mph 1012.9mb 81f 81f
12:50 2.5ft 4s 4s 18 20 mph 1013.7mb 81f 81f
11:50 2.5ft 4s 4s 16 18 mph 1014.7mb 81f 81f
10:50 2.5ft 3s 4s 16 18 mph 1015.6mb 81f 81f
9:50 2.5ft 3s 4s 18 20 mph 1015.8mb 81f 81f
8:50 2.5ft 4s 4s 16 18 mph 1016.1mb 81f 81f
7:50 2ft 4s 4s 13 16 mph 1015.9mb 81f 80f
6:50 2ft 5s 4s 13 16 mph 1015.3mb 81f 80f
5:50 2ft 4s 4s 13 18 mph 1014.5mb 81f 80f
4:50 2ft 4s 4s 11 16 mph 1014.2mb 81f 80f
3:50 2.5ft 4s 4s 11 13 mph 1014mb 81f 80f
2:50 2ft 5s 4s 11 13 mph 1014.1mb 81f 80f
1:50 2.5ft 4s 4s 11 13 mph 1014.5mb 81f 80f
12:50 2ft 4s 4s 13 16 mph 1014.9mb 81f 80f
mié 03/25 11:50 2.5ft 5s 4s 13 16 mph 1015.7mb 81f 80f
10:50 2.5ft 5s 4s 13 16 mph 1016.2mb 81f 80f
9:50 2.5ft 5s 4s 16 18 mph 1016.6mb 81f 80f
8:50 2.5ft 4s 4s 13 18 mph 1016.4mb 81f 80f
7:50 2.5ft 4s 4s 16 18 mph 1016mb 81f 80f
6:50 2.5ft 4s 4s 13 16 mph 1015.9mb 81f 80f
5:50 2ft 4s 4s 13 16 mph 1015.8mb 81f 80f
4:50 2ft 4s 4s 11 13 mph 1015.8mb 81f 80f
3:50 2.5ft 4s 4s 11 13 mph 1015.6mb 81f 80f
2:50 2ft 4s 4s 11 13 mph 1015.8mb 81f 80f
1:50 2.5ft 4s 4s 11 13 mph 1016.1mb 81f 80f
12:50 2.5ft 4s 4s 13
mph
1016.6mb 81f 80f
11:50 2ft 4s 4s 13 18 mph 1017.2mb 81f 80f
10:50 2.5ft 4s 4s 13 16 mph 1018mb 81f 80f
9:50 2.5ft 4s 4s 11 13 mph 1018.1mb 81f 80f
8:50 2.5ft 4s 4s 13 16 mph 1017.7mb 81f 80f
7:50 2.5ft 3s 4s 13 18 mph 1017.4mb 81f 80f
6:50 2ft 4s 4s 16 18 mph 1016.7mb 81f 80f
5:50 2ft 3s 4s 13 16 mph 1016.1mb 81f 79f
4:50 2ft 4s 4s 13 16 mph 1015.6mb 81f 79f
3:50 2ft 3s 4s 13 16 mph 1015.2mb 81f 79f
2:50 2ft 3s 4s 13 16 mph 1014.9mb 81f 79f
1:50 2ft 3s 4s 13 16 mph 1015.2mb 81f 80f
12:50 1.6ft 3s 3s 13 18 mph 1015.6mb 81f 80f
mar 03/24 11:50 1.6ft 3s 3s 13 16 mph 1016.4mb 81f 80f
10:50 1.6ft 4s 4s 13 18 mph 1016.7mb 81f 80f
9:50 1.3ft 5s 4s 11 13 mph 1016.9mb 81f 80f
8:50 1.3ft 4s 4s 11 13 mph 1016.7mb 81f 80f
7:50 1.3ft 4s 4s 7 9 mph 1016.7mb 81f 80f
6:50 1.3ft 4s 4s 4 7 mph 1016.3mb 81f 80f
5:50 1.3ft 3s 4s 7
mph
1016mb 81f 80f
4:50 1.3ft 4s 4s 7
mph
1015.6mb 82f 81f
3:50 1.3ft 3s 4s 7 9 mph 1015.4mb 82f 81f
2:50 1.3ft 5s 4s 7 9 mph 1015.5mb 82f 81f
1:50 1.3ft 3s 4s 9 11 mph 1015.8mb 82f 80f
12:50 1.3ft 6s 4s 9 11 mph 1016.3mb 82f 80f
11:50 1.3ft 5s 4s 7 9 mph 1017.1mb 81f 80f
10:50 1.3ft 5s 4s 11
mph
1017.7mb 81f 80f
9:50 1.3ft 6s 4s 9 11 mph 1017.8mb 81f 80f
8:50 1.3ft 5s 4s 11 13 mph 1017.3mb 81f 80f
7:50 1.3ft 5s 4s 9 11 mph 1017.3mb 81f 80f
6:50 1.3ft 5s 4s 7 9 mph 1016.6mb 81f 79f
5:50 1.3ft 5s 4s 9
mph
1015.8mb 81f 79f
4:50 1.3ft 5s 4s 7
mph
1015.3mb 81f 79f
3:50 1.3ft 5s 4s 4 7 mph 1014.7mb 81f 79f
2:50 1.3ft 5s 4s 4 7 mph 1014.5mb 81f 79f
1:50 1.3ft 6s 4s 7 9 mph 1014.8mb 81f 79f
12:50 1.6ft 5s 4s 7 9 mph 1015.2mb 81f 79f
lun 03/23 11:50 1.6ft 5s 4s 9 11 mph 1015.5mb 81f 79f
10:50 1.3ft 5s 4s 9
mph
1015.7mb 81f 80f
9:50 1.3ft 5s 4s 9 11 mph 1016mb 81f 80f
8:50 1.3ft 6s 4s 9
mph
1015.7mb 81f 80f
7:50 1.3ft 5s 4s 7 9 mph 1015.2mb 81f 80f
6:50 1.3ft 5s 4s 7 9 mph 1014.8mb 81f 80f
5:50 1.3ft 5s 4s 4 7 mph 1014.5mb 82f 80f
4:50 1.3ft 5s 4s 4 7 mph 1014.4mb 82f 80f
3:50 1.3ft 5s 4s 7 9 mph 1014.2mb 82f 80f
2:50 1.3ft 5s 4s 7 9 mph 1014.3mb 82f 80f
1:50 1.3ft 6s 4s 9 11 mph 1014.2mb 82f 80f
12:50 1ft 4s 4s 9 11 mph 1014.9mb 82f 80f
11:50 1.3ft 4s 4s 9 11 mph 1015.6mb 82f 80f
10:50 1ft 5s 4s 7 9 mph 1016.4mb 81f 80f
9:50 1.3ft 6s 4s 9 11 mph 1016.6mb 81f 80f
8:50 1.3ft 5s 4s 9 11 mph 1016.7mb 81f 79f
7:50 1.3ft 5s 4s 7 9 mph 1016.3mb 81f 79f